sensor_id;sensor_type;location;lat;lon;timestamp;P1;durP1;ratioP1;P2;durP2;ratioP2
65130;SDS011;51709;54.912;8.316;2022-12-18T00:06:39;63.30;;;22.80;;
65130;SDS011;51709;54.912;8.316;2022-12-18T00:12:01;73.70;;;22.73;;
65130;SDS011;51709;54.912;8.316;2022-12-18T00:17:35;65.07;;;20.37;;
65130;SDS011;51709;54.912;8.316;2022-12-18T00:22:55;71.45;;;22.52;;
65130;SDS011;51709;54.912;8.316;2022-12-18T00:28:16;73.43;;;25.63;;
65130;SDS011;51709;54.912;8.316;2022-12-18T00:33:37;89.75;;;26.95;;
65130;SDS011;51709;54.912;8.316;2022-12-18T00:39:03;71.47;;;22.67;;
65130;SDS011;51709;54.912;8.316;2022-12-18T00:44:24;75.30;;;23.73;;
65130;SDS011;51709;54.912;8.316;2022-12-18T00:49:45;73.93;;;24.33;;
65130;SDS011;51709;54.912;8.316;2022-12-18T00:55:06;71.30;;;23.20;;
65130;SDS011;51709;54.912;8.316;2022-12-18T01:00:27;77.80;;;21.50;;
65130;SDS011;51709;54.912;8.316;2022-12-18T01:05:47;87.25;;;25.75;;
65130;SDS011;51709;54.912;8.316;2022-12-18T01:11:09;86.30;;;26.13;;
65130;SDS011;51709;54.912;8.316;2022-12-18T01:16:31;70.65;;;23.88;;
65130;SDS011;51709;54.912;8.316;2022-12-18T01:21:52;73.05;;;22.42;;
65130;SDS011;51709;54.912;8.316;2022-12-18T01:27:13;80.57;;;22.88;;
65130;SDS011;51709;54.912;8.316;2022-12-18T01:32:34;71.38;;;24.52;;
65130;SDS011;51709;54.912;8.316;2022-12-18T01:37:55;84.72;;;25.85;;
65130;SDS011;51709;54.912;8.316;2022-12-18T01:43:15;75.80;;;23.27;;
65130;SDS011;51709;54.912;8.316;2022-12-18T01:48:36;60.50;;;22.45;;
65130;SDS011;51709;54.912;8.316;2022-12-18T01:53:58;81.68;;;24.90;;
65130;SDS011;51709;54.912;8.316;2022-12-18T01:59:19;75.70;;;23.60;;
65130;SDS011;51709;54.912;8.316;2022-12-18T02:04:40;58.28;;;20.20;;
65130;SDS011;51709;54.912;8.316;2022-12-18T02:10:12;78.75;;;22.17;;
65130;SDS011;51709;54.912;8.316;2022-12-18T02:15:51;59.65;;;19.08;;
65130;SDS011;51709;54.912;8.316;2022-12-18T02:21:28;78.18;;;24.10;;
65130;SDS011;51709;54.912;8.316;2022-12-18T02:26:59;68.00;;;21.88;;
65130;SDS011;51709;54.912;8.316;2022-12-18T02:32:31;49.08;;;16.75;;
65130;SDS011;51709;54.912;8.316;2022-12-18T02:37:56;46.22;;;17.85;;
65130;SDS011;51709;54.912;8.316;2022-12-18T02:43:19;50.70;;;18.13;;
65130;SDS011;51709;54.912;8.316;2022-12-18T02:48:42;68.90;;;21.17;;
65130;SDS011;51709;54.912;8.316;2022-12-18T02:54:10;41.65;;;15.43;;
65130;SDS011;51709;54.912;8.316;2022-12-18T02:59:47;55.15;;;15.85;;
65130;SDS011;51709;54.912;8.316;2022-12-18T03:05:28;60.35;;;16.92;;
65130;SDS011;51709;54.912;8.316;2022-12-18T03:11:03;48.88;;;17.88;;
65130;SDS011;51709;54.912;8.316;2022-12-18T03:16:28;50.72;;;17.50;;
65130;SDS011;51709;54.912;8.316;2022-12-18T03:21:52;44.80;;;16.58;;
65130;SDS011;51709;54.912;8.316;2022-12-18T03:27:18;50.65;;;16.17;;
65130;SDS011;51709;54.912;8.316;2022-12-18T03:33:03;46.60;;;15.80;;
65130;SDS011;51709;54.912;8.316;2022-12-18T03:47:16;47.13;;;15.35;;
65130;SDS011;51709;54.912;8.316;2022-12-18T03:58:18;49.40;;;17.50;;
65130;SDS011;51709;54.912;8.316;2022-12-18T04:04:08;48.92;;;16.42;;
65130;SDS011;51709;54.912;8.316;2022-12-18T04:09:33;42.53;;;14.65;;
65130;SDS011;51709;54.912;8.316;2022-12-18T04:14:56;59.90;;;18.90;;
65130;SDS011;51709;54.912;8.316;2022-12-18T04:20:17;47.63;;;14.13;;
65130;SDS011;51709;54.912;8.316;2022-12-18T04:25:39;58.60;;;18.98;;
65130;SDS011;51709;54.912;8.316;2022-12-18T04:31:04;45.13;;;17.98;;
65130;SDS011;51709;54.912;8.316;2022-12-18T04:36:25;66.35;;;20.48;;
65130;SDS011;51709;54.912;8.316;2022-12-18T04:41:46;69.55;;;19.80;;
65130;SDS011;51709;54.912;8.316;2022-12-18T04:47:07;59.70;;;18.25;;
65130;SDS011;51709;54.912;8.316;2022-12-18T04:52:27;65.72;;;20.63;;
65130;SDS011;51709;54.912;8.316;2022-12-18T04:57:48;58.25;;;21.02;;
65130;SDS011;51709;54.912;8.316;2022-12-18T05:03:09;64.82;;;20.00;;
65130;SDS011;51709;54.912;8.316;2022-12-18T05:08:30;53.85;;;17.63;;
65130;SDS011;51709;54.912;8.316;2022-12-18T05:13:51;60.60;;;17.40;;
65130;SDS011;51709;54.912;8.316;2022-12-18T05:19:11;55.80;;;18.60;;
65130;SDS011;51709;54.912;8.316;2022-12-18T05:24:32;63.35;;;20.38;;
65130;SDS011;51709;54.912;8.316;2022-12-18T05:29:53;53.10;;;18.33;;
65130;SDS011;51709;54.912;8.316;2022-12-18T05:35:16;49.50;;;18.55;;
65130;SDS011;51709;54.912;8.316;2022-12-18T05:40:37;45.45;;;17.13;;
65130;SDS011;51709;54.912;8.316;2022-12-18T05:46:02;63.85;;;19.50;;
65130;SDS011;51709;54.912;8.316;2022-12-18T05:51:24;59.42;;;19.58;;
65130;SDS011;51709;54.912;8.316;2022-12-18T05:56:44;52.83;;;20.88;;
65130;SDS011;51709;54.912;8.316;2022-12-18T06:02:08;48.40;;;19.87;;
65130;SDS011;51709;54.912;8.316;2022-12-18T06:07:28;58.55;;;20.85;;
65130;SDS011;51709;54.912;8.316;2022-12-18T06:12:49;58.97;;;20.48;;
65130;SDS011;51709;54.912;8.316;2022-12-18T06:18:10;63.33;;;22.25;;
65130;SDS011;51709;54.912;8.316;2022-12-18T06:23:30;51.92;;;17.45;;
65130;SDS011;51709;54.912;8.316;2022-12-18T06:28:51;56.20;;;19.20;;
65130;SDS011;51709;54.912;8.316;2022-12-18T06:34:11;65.18;;;20.60;;
65130;SDS011;51709;54.912;8.316;2022-12-18T06:39:32;50.17;;;16.88;;
65130;SDS011;51709;54.912;8.316;2022-12-18T06:44:53;45.58;;;19.13;;
65130;SDS011;51709;54.912;8.316;2022-12-18T06:50:14;56.58;;;19.80;;
65130;SDS011;51709;54.912;8.316;2022-12-18T06:55:35;61.67;;;21.17;;
65130;SDS011;51709;54.912;8.316;2022-12-18T07:00:59;48.42;;;17.35;;
65130;SDS011;51709;54.912;8.316;2022-12-18T07:06:25;53.88;;;18.70;;
65130;SDS011;51709;54.912;8.316;2022-12-18T07:11:46;47.22;;;16.10;;
65130;SDS011;51709;54.912;8.316;2022-12-18T07:17:06;57.00;;;16.42;;
65130;SDS011;51709;54.912;8.316;2022-12-18T07:22:27;49.60;;;17.95;;
65130;SDS011;51709;54.912;8.316;2022-12-18T07:27:49;60.53;;;18.55;;
65130;SDS011;51709;54.912;8.316;2022-12-18T07:33:10;56.90;;;17.02;;
65130;SDS011;51709;54.912;8.316;2022-12-18T07:38:31;50.53;;;16.23;;
65130;SDS011;51709;54.912;8.316;2022-12-18T07:43:51;47.40;;;18.05;;
65130;SDS011;51709;54.912;8.316;2022-12-18T07:49:12;62.30;;;18.15;;
65130;SDS011;51709;54.912;8.316;2022-12-18T07:54:33;64.30;;;19.48;;
65130;SDS011;51709;54.912;8.316;2022-12-18T07:59:57;48.50;;;17.52;;
65130;SDS011;51709;54.912;8.316;2022-12-18T08:05:21;42.92;;;15.38;;
65130;SDS011;51709;54.912;8.316;2022-12-18T08:10:46;52.92;;;14.80;;
65130;SDS011;51709;54.912;8.316;2022-12-18T08:16:07;51.13;;;16.20;;
65130;SDS011;51709;54.912;8.316;2022-12-18T08:21:28;44.03;;;13.05;;
65130;SDS011;51709;54.912;8.316;2022-12-18T08:26:50;60.85;;;15.60;;
65130;SDS011;51709;54.912;8.316;2022-12-18T08:32:31;48.60;;;15.52;;
65130;SDS011;51709;54.912;8.316;2022-12-18T08:37:54;45.15;;;15.10;;
65130;SDS011;51709;54.912;8.316;2022-12-18T08:43:14;36.70;;;13.20;;
65130;SDS011;51709;54.912;8.316;2022-12-18T08:48:53;39.28;;;15.00;;
65130;SDS011;51709;54.912;8.316;2022-12-18T08:54:16;48.97;;;16.15;;
65130;SDS011;51709;54.912;8.316;2022-12-18T08:59:48;36.00;;;13.82;;
65130;SDS011;51709;54.912;8.316;2022-12-18T09:05:10;42.67;;;14.77;;
65130;SDS011;51709;54.912;8.316;2022-12-18T09:10:31;37.38;;;12.20;;
65130;SDS011;51709;54.912;8.316;2022-12-18T09:15:53;38.00;;;12.73;;
65130;SDS011;51709;54.912;8.316;2022-12-18T09:21:15;44.20;;;13.50;;
65130;SDS011;51709;54.912;8.316;2022-12-18T09:26:37;47.30;;;14.25;;
65130;SDS011;51709;54.912;8.316;2022-12-18T09:31:59;39.75;;;15.48;;
65130;SDS011;51709;54.912;8.316;2022-12-18T09:37:19;34.80;;;12.48;;
65130;SDS011;51709;54.912;8.316;2022-12-18T09:42:41;35.75;;;12.65;;
65130;SDS011;51709;54.912;8.316;2022-12-18T09:48:18;34.85;;;14.30;;
65130;SDS011;51709;54.912;8.316;2022-12-18T09:53:44;44.33;;;16.17;;
65130;SDS011;51709;54.912;8.316;2022-12-18T09:59:27;36.33;;;13.13;;
65130;SDS011;51709;54.912;8.316;2022-12-18T10:10:23;34.08;;;13.82;;
65130;SDS011;51709;54.912;8.316;2022-12-18T10:16:35;37.13;;;14.32;;
65130;SDS011;51709;54.912;8.316;2022-12-18T10:27:35;28.05;;;12.02;;
65130;SDS011;51709;54.912;8.316;2022-12-18T10:33:00;33.83;;;12.63;;
65130;SDS011;51709;54.912;8.316;2022-12-18T10:38:23;27.63;;;12.02;;
65130;SDS011;51709;54.912;8.316;2022-12-18T10:43:48;29.85;;;12.68;;
65130;SDS011;51709;54.912;8.316;2022-12-18T10:49:41;28.92;;;11.43;;
65130;SDS011;51709;54.912;8.316;2022-12-18T10:55:13;28.13;;;12.57;;
65130;SDS011;51709;54.912;8.316;2022-12-18T11:00:37;28.40;;;11.98;;
65130;SDS011;51709;54.912;8.316;2022-12-18T11:06:01;27.55;;;11.25;;
65130;SDS011;51709;54.912;8.316;2022-12-18T11:11:26;27.42;;;9.45;;
65130;SDS011;51709;54.912;8.316;2022-12-18T11:16:47;35.38;;;11.65;;
65130;SDS011;51709;54.912;8.316;2022-12-18T11:22:30;19.75;;;9.40;;
65130;SDS011;51709;54.912;8.316;2022-12-18T11:27:55;15.65;;;8.30;;
65130;SDS011;51709;54.912;8.316;2022-12-18T11:33:21;17.47;;;6.60;;
65130;SDS011;51709;54.912;8.316;2022-12-18T11:44:04;24.20;;;9.07;;
65130;SDS011;51709;54.912;8.316;2022-12-18T11:49:33;21.88;;;9.05;;
65130;SDS011;51709;54.912;8.316;2022-12-18T11:54:56;20.90;;;9.10;;
65130;SDS011;51709;54.912;8.316;2022-12-18T12:00:21;17.50;;;7.85;;
65130;SDS011;51709;54.912;8.316;2022-12-18T12:05:53;15.38;;;6.53;;
65130;SDS011;51709;54.912;8.316;2022-12-18T12:16:54;12.13;;;5.18;;
65130;SDS011;51709;54.912;8.316;2022-12-18T12:28:22;21.58;;;9.18;;
65130;SDS011;51709;54.912;8.316;2022-12-18T12:33:52;19.90;;;10.10;;
65130;SDS011;51709;54.912;8.316;2022-12-18T12:39:22;14.63;;;9.68;;
65130;SDS011;51709;54.912;8.316;2022-12-18T12:44:54;14.90;;;9.50;;
65130;SDS011;51709;54.912;8.316;2022-12-18T12:50:18;15.68;;;8.63;;
65130;SDS011;51709;54.912;8.316;2022-12-18T12:55:41;16.38;;;8.88;;
65130;SDS011;51709;54.912;8.316;2022-12-18T13:01:11;18.17;;;7.78;;
65130;SDS011;51709;54.912;8.316;2022-12-18T13:06:47;13.30;;;8.20;;
65130;SDS011;51709;54.912;8.316;2022-12-18T13:12:13;15.57;;;8.30;;
65130;SDS011;51709;54.912;8.316;2022-12-18T13:18:04;14.68;;;9.23;;
65130;SDS011;51709;54.912;8.316;2022-12-18T13:23:48;19.48;;;8.88;;
65130;SDS011;51709;54.912;8.316;2022-12-18T13:29:08;13.63;;;7.80;;
65130;SDS011;51709;54.912;8.316;2022-12-18T13:34:29;17.73;;;8.93;;
65130;SDS011;51709;54.912;8.316;2022-12-18T13:39:52;24.58;;;6.90;;
65130;SDS011;51709;54.912;8.316;2022-12-18T13:51:03;14.82;;;7.05;;
65130;SDS011;51709;54.912;8.316;2022-12-18T13:56:27;13.40;;;7.82;;
65130;SDS011;51709;54.912;8.316;2022-12-18T14:01:56;13.48;;;7.32;;
65130;SDS011;51709;54.912;8.316;2022-12-18T14:07:26;10.05;;;6.55;;
65130;SDS011;51709;54.912;8.316;2022-12-18T14:12:54;11.30;;;6.00;;
65130;SDS011;51709;54.912;8.316;2022-12-18T14:18:26;18.38;;;7.05;;
65130;SDS011;51709;54.912;8.316;2022-12-18T14:29:29;19.20;;;6.55;;
65130;SDS011;51709;54.912;8.316;2022-12-18T14:34:51;9.75;;;5.30;;
65130;SDS011;51709;54.912;8.316;2022-12-18T14:40:16;11.90;;;5.65;;
65130;SDS011;51709;54.912;8.316;2022-12-18T14:45:37;13.23;;;6.88;;
65130;SDS011;51709;54.912;8.316;2022-12-18T14:56:46;15.38;;;6.40;;
65130;SDS011;51709;54.912;8.316;2022-12-18T15:07:41;11.43;;;7.60;;
65130;SDS011;51709;54.912;8.316;2022-12-18T15:18:28;21.33;;;7.95;;
65130;SDS011;51709;54.912;8.316;2022-12-18T15:23:55;12.68;;;7.10;;
65130;SDS011;51709;54.912;8.316;2022-12-18T15:29:20;13.63;;;7.13;;
65130;SDS011;51709;54.912;8.316;2022-12-18T15:34:42;16.25;;;7.53;;
65130;SDS011;51709;54.912;8.316;2022-12-18T15:40:03;16.17;;;7.75;;
65130;SDS011;51709;54.912;8.316;2022-12-18T15:45:24;17.77;;;7.90;;
65130;SDS011;51709;54.912;8.316;2022-12-18T15:50:46;13.55;;;6.90;;
65130;SDS011;51709;54.912;8.316;2022-12-18T15:56:13;16.20;;;7.70;;
65130;SDS011;51709;54.912;8.316;2022-12-18T16:01:54;14.48;;;7.57;;
65130;SDS011;51709;54.912;8.316;2022-12-18T16:07:16;16.92;;;8.07;;
65130;SDS011;51709;54.912;8.316;2022-12-18T16:12:45;13.25;;;6.68;;
65130;SDS011;51709;54.912;8.316;2022-12-18T16:18:06;13.73;;;6.97;;
65130;SDS011;51709;54.912;8.316;2022-12-18T16:23:28;16.10;;;7.93;;
65130;SDS011;51709;54.912;8.316;2022-12-18T16:28:48;14.55;;;7.45;;
65130;SDS011;51709;54.912;8.316;2022-12-18T16:34:10;18.73;;;7.88;;
65130;SDS011;51709;54.912;8.316;2022-12-18T16:39:48;17.10;;;8.77;;
65130;SDS011;51709;54.912;8.316;2022-12-18T16:45:09;13.43;;;6.13;;
65130;SDS011;51709;54.912;8.316;2022-12-18T16:50:32;14.07;;;6.43;;
65130;SDS011;51709;54.912;8.316;2022-12-18T16:55:55;11.38;;;6.25;;
65130;SDS011;51709;54.912;8.316;2022-12-18T17:01:16;12.82;;;6.10;;
65130;SDS011;51709;54.912;8.316;2022-12-18T17:06:41;14.55;;;7.22;;
65130;SDS011;51709;54.912;8.316;2022-12-18T17:12:03;15.30;;;6.60;;
65130;SDS011;51709;54.912;8.316;2022-12-18T17:17:23;15.93;;;7.90;;
65130;SDS011;51709;54.912;8.316;2022-12-18T17:22:44;19.58;;;8.52;;
65130;SDS011;51709;54.912;8.316;2022-12-18T17:28:05;18.77;;;7.18;;
65130;SDS011;51709;54.912;8.316;2022-12-18T17:33:25;11.18;;;4.93;;
65130;SDS011;51709;54.912;8.316;2022-12-18T17:38:53;11.07;;;6.60;;
65130;SDS011;51709;54.912;8.316;2022-12-18T17:44:15;16.75;;;8.05;;
65130;SDS011;51709;54.912;8.316;2022-12-18T17:49:37;17.77;;;8.13;;
65130;SDS011;51709;54.912;8.316;2022-12-18T17:54:58;13.18;;;7.13;;
65130;SDS011;51709;54.912;8.316;2022-12-18T18:00:18;13.63;;;5.97;;
65130;SDS011;51709;54.912;8.316;2022-12-18T18:05:39;13.80;;;7.15;;
65130;SDS011;51709;54.912;8.316;2022-12-18T18:11:09;13.02;;;4.18;;
65130;SDS011;51709;54.912;8.316;2022-12-18T18:16:50;13.10;;;6.15;;
65130;SDS011;51709;54.912;8.316;2022-12-18T18:22:11;14.35;;;6.70;;
65130;SDS011;51709;54.912;8.316;2022-12-18T18:27:32;14.57;;;6.75;;
65130;SDS011;51709;54.912;8.316;2022-12-18T18:32:57;25.08;;;7.30;;
65130;SDS011;51709;54.912;8.316;2022-12-18T18:38:18;15.55;;;7.10;;
65130;SDS011;51709;54.912;8.316;2022-12-18T18:43:38;9.80;;;6.18;;
65130;SDS011;51709;54.912;8.316;2022-12-18T18:49:00;11.32;;;6.65;;
65130;SDS011;51709;54.912;8.316;2022-12-18T18:54:21;13.88;;;5.75;;
65130;SDS011;51709;54.912;8.316;2022-12-18T18:59:41;10.68;;;5.35;;
65130;SDS011;51709;54.912;8.316;2022-12-18T19:05:02;17.55;;;5.32;;
65130;SDS011;51709;54.912;8.316;2022-12-18T19:10:23;11.80;;;5.63;;
65130;SDS011;51709;54.912;8.316;2022-12-18T19:15:44;10.15;;;5.13;;
65130;SDS011;51709;54.912;8.316;2022-12-18T19:21:05;16.55;;;6.78;;
65130;SDS011;51709;54.912;8.316;2022-12-18T19:26:26;19.10;;;7.07;;
65130;SDS011;51709;54.912;8.316;2022-12-18T19:31:47;15.98;;;6.90;;
65130;SDS011;51709;54.912;8.316;2022-12-18T19:37:08;24.20;;;8.73;;
65130;SDS011;51709;54.912;8.316;2022-12-18T19:42:29;22.88;;;8.93;;
65130;SDS011;51709;54.912;8.316;2022-12-18T19:47:54;17.92;;;7.90;;
65130;SDS011;51709;54.912;8.316;2022-12-18T19:53:23;21.63;;;8.63;;
65130;SDS011;51709;54.912;8.316;2022-12-18T19:58:44;20.45;;;9.85;;
65130;SDS011;51709;54.912;8.316;2022-12-18T20:04:05;15.50;;;8.35;;
65130;SDS011;51709;54.912;8.316;2022-12-18T20:09:26;18.20;;;9.45;;
65130;SDS011;51709;54.912;8.316;2022-12-18T20:14:48;26.85;;;9.43;;
65130;SDS011;51709;54.912;8.316;2022-12-18T20:20:08;25.27;;;9.18;;
65130;SDS011;51709;54.912;8.316;2022-12-18T20:25:29;26.60;;;10.02;;
65130;SDS011;51709;54.912;8.316;2022-12-18T20:30:49;25.25;;;12.45;;
65130;SDS011;51709;54.912;8.316;2022-12-18T20:36:14;23.40;;;9.27;;
65130;SDS011;51709;54.912;8.316;2022-12-18T20:41:41;23.30;;;8.60;;
65130;SDS011;51709;54.912;8.316;2022-12-18T20:54:36;24.25;;;10.98;;
65130;SDS011;51709;54.912;8.316;2022-12-18T20:59:56;19.35;;;10.68;;
65130;SDS011;51709;54.912;8.316;2022-12-18T21:05:17;23.13;;;10.85;;
65130;SDS011;51709;54.912;8.316;2022-12-18T21:10:37;25.13;;;9.25;;
65130;SDS011;51709;54.912;8.316;2022-12-18T21:15:58;20.83;;;9.05;;
65130;SDS011;51709;54.912;8.316;2022-12-18T21:21:19;18.65;;;8.50;;
65130;SDS011;51709;54.912;8.316;2022-12-18T21:26:46;19.52;;;9.52;;
65130;SDS011;51709;54.912;8.316;2022-12-18T21:32:08;23.42;;;10.43;;
65130;SDS011;51709;54.912;8.316;2022-12-18T21:37:28;19.40;;;8.85;;
65130;SDS011;51709;54.912;8.316;2022-12-18T21:42:49;22.50;;;9.50;;
65130;SDS011;51709;54.912;8.316;2022-12-18T21:48:29;18.45;;;8.25;;
65130;SDS011;51709;54.912;8.316;2022-12-18T21:53:50;18.85;;;9.63;;
65130;SDS011;51709;54.912;8.316;2022-12-18T21:59:14;20.98;;;10.05;;
65130;SDS011;51709;54.912;8.316;2022-12-18T22:04:41;23.45;;;9.18;;
65130;SDS011;51709;54.912;8.316;2022-12-18T22:10:03;22.95;;;9.38;;
65130;SDS011;51709;54.912;8.316;2022-12-18T22:15:24;22.85;;;9.15;;
65130;SDS011;51709;54.912;8.316;2022-12-18T22:20:46;15.35;;;7.80;;
65130;SDS011;51709;54.912;8.316;2022-12-18T22:26:07;25.10;;;10.23;;
65130;SDS011;51709;54.912;8.316;2022-12-18T22:31:29;19.20;;;10.13;;
65130;SDS011;51709;54.912;8.316;2022-12-18T22:36:50;19.88;;;9.40;;
65130;SDS011;51709;54.912;8.316;2022-12-18T22:42:10;22.42;;;7.90;;
65130;SDS011;51709;54.912;8.316;2022-12-18T22:47:31;16.50;;;10.65;;
65130;SDS011;51709;54.912;8.316;2022-12-18T22:52:52;22.77;;;10.23;;
65130;SDS011;51709;54.912;8.316;2022-12-18T22:58:12;21.13;;;10.68;;
65130;SDS011;51709;54.912;8.316;2022-12-18T23:03:33;19.77;;;10.68;;
65130;SDS011;51709;54.912;8.316;2022-12-18T23:08:54;24.35;;;9.45;;
65130;SDS011;51709;54.912;8.316;2022-12-18T23:14:16;15.70;;;8.60;;
65130;SDS011;51709;54.912;8.316;2022-12-18T23:19:37;20.25;;;9.35;;
65130;SDS011;51709;54.912;8.316;2022-12-18T23:25:03;20.25;;;10.00;;
65130;SDS011;51709;54.912;8.316;2022-12-18T23:30:24;22.10;;;10.45;;
65130;SDS011;51709;54.912;8.316;2022-12-18T23:35:44;14.30;;;7.43;;
65130;SDS011;51709;54.912;8.316;2022-12-18T23:41:06;12.23;;;7.13;;
65130;SDS011;51709;54.912;8.316;2022-12-18T23:46:31;20.08;;;9.88;;
65130;SDS011;51709;54.912;8.316;2022-12-18T23:51:53;11.95;;;7.50;;
65130;SDS011;51709;54.912;8.316;2022-12-18T23:57:14;17.38;;;7.93;;
